Happy Pelican — 2FUW7 — position and weather

sailwx.info

Track history (hours):
 
Tides and Currents Weather Stations Pressure Air Temp Water Temp Dewpoint Dewpoint Depression Visibility Wind Speed Wind Dir Waves Ship Positions

Happy Pelican

Last reported at 2018-Feb-21 11:30 UTC. Time now 2018-Feb-21 11:44 UTC.
Position N 51°16' E 004°15'.

Length 113 m; draft 6.6 m.

Type: Ship (hazmat cat D). MMSI: 235094449.

Date/timePositionNaut miles runAvg speedWind from/ knotsBaromVisibWave heightAir tempDewpointWater temp
2018-Feb-21 11:30N 51°16' E 004°15'0 0.0
2018-Feb-21 11:00N 51°16' E 004°15'0 0.0
2018-Feb-21 10:30N 51°16' E 004°15'0 0.0
2018-Feb-21 10:00N 51°16' E 004°15'0 0.0
2018-Feb-21 09:27N 51°16' E 004°15'0 0.0
2018-Feb-21 09:00N 51°16' E 004°15'0 0.0
2018-Feb-21 08:27N 51°16' E 004°15'0 0.0
2018-Feb-21 08:00N 51°16' E 004°15'0 0.0
2018-Feb-21 07:30N 51°16' E 004°15'0 0.0
2018-Feb-21 07:00N 51°16' E 004°15'0 0.0
2018-Feb-21 06:30N 51°16' E 004°15'0 0.0
2018-Feb-21 05:54N 51°16' E 004°15'0 0.0
2018-Feb-21 05:30N 51°16' E 004°15'0 0.0
2018-Feb-21 05:00N 51°16' E 004°15'0 0.0
2018-Feb-21 04:27N 51°16' E 004°15'0 0.0
2018-Feb-21 04:00N 51°16' E 004°15'0 0.0
2018-Feb-21 03:30N 51°16' E 004°15'0 0.0
2018-Feb-21 03:00N 51°16' E 004°15'0 0.0
2018-Feb-21 02:30N 51°16' E 004°15'0 0.0
2018-Feb-21 02:00N 51°16' E 004°15'0 0.0
2018-Feb-21 01:30N 51°16' E 004°15'0 0.0
2018-Feb-21 01:00N 51°16' E 004°15'0 0.0
2018-Feb-21 00:30N 51°16' E 004°15'0 0.0
2018-Feb-21 00:00N 51°16' E 004°15'0 0.0
2018-Feb-20 23:30N 51°16' E 004°15'0 0.0
2018-Feb-20 23:00N 51°16' E 004°15'0 0.0
2018-Feb-20 22:30N 51°16' E 004°15'0 0.0
2018-Feb-20 21:57N 51°16' E 004°15'0 0.0
2018-Feb-20 21:30N 51°16' E 004°15'0 0.0
2018-Feb-20 21:00N 51°16' E 004°15'0 0.0
2018-Feb-20 20:24N 51°16' E 004°15'0 0.0
2018-Feb-20 19:57N 51°16' E 004°15'0 0.0
2018-Feb-20 19:30N 51°16' E 004°15'0 0.0
2018-Feb-20 19:00N 51°16' E 004°15'0 0.1
2018-Feb-20 18:30N 51°16' E 004°15'1 2.0
2018-Feb-20 18:00N 51°17' E 004°15'0 0.0
2018-Feb-20 17:30N 51°17' E 004°15'0 0.2
2018-Feb-20 17:00N 51°17' E 004°15'2 3.4
2018-Feb-20 16:30N 51°18' E 004°16'612.7
2018-Feb-20 16:00N 51°24' E 004°12'612.2
2018-Feb-20 15:31N 51°24' E 004°02'4 8.6
2018-Feb-20 15:00N 51°22' E 003°56'713.9
2018-Feb-20 14:30N 51°22' E 003°45'612.0
2018-Feb-20 14:00N 51°26' E 003°37'4 7.7
2018-Feb-20 13:30N 51°27' E 003°31'612.0
2018-Feb-20 13:00N 51°32' E 003°25'611.8
2018-Feb-20 12:31N 51°37' E 003°21'713.7
2018-Feb-20 12:00N 51°43' E 003°15'5 9.6
2018-Feb-20 11:28N 51°48' E 003°16'3 1.3
2018-Feb-20 08:51N 51°50' E 003°21'0 0.0
2018-Feb-20 04:30N 51°50' E 003°21'0 0.0
2018-Feb-20 04:00N 51°50' E 003°21'0 0.0
2018-Feb-20 03:30N 51°50' E 003°21'0 0.0
2018-Feb-20 03:00N 51°50' E 003°21'0 0.2
2018-Feb-20 02:30N 51°50' E 003°21'0 0.1
2018-Feb-20 02:00N 51°50' E 003°21'0 0.0
2018-Feb-20 01:24N 51°50' E 003°21'0 0.0
2018-Feb-20 01:00N 51°50' E 003°21'0 0.0
2018-Feb-19 01:37N 51°50' E 003°21'0 3.0
2018-Feb-19 01:28N 51°50' E 003°20'2613.9
2018-Feb-18 23:36N 52°16' E 003°24'515.9
2018-Feb-18 23:19N 52°20' E 003°25'516.0
2018-Feb-18 22:59N 52°26' E 003°27'916.2
2018-Feb-18 22:27N 52°34' E 003°29'3214.7
2018-Feb-18 20:14N 52°59' E 004°03'1714.1
2018-Feb-18 19:02N 53°11' E 004°24'013.1
2018-Feb-18 19:00N 53°11' E 004°24'1713.0
2018-Feb-18 17:42N 53°26' E 004°36'313.3
2018-Feb-18 17:28N 53°29' E 004°39'714.3
2018-Feb-18 17:00N 53°31' E 004°49'715.3
2018-Feb-18 16:30N 53°34' E 005°01'815.7
2018-Feb-18 16:00N 53°36' E 005°14'815.6
2018-Feb-18 15:30N 53°39' E 005°26'6914.7
2018-Feb-18 10:46N 53°58' E 007°19'413.1
2018-Feb-18 10:29N 53°59' E 007°25'713.1
2018-Feb-18 09:59N 54°01' E 007°36'613.3
2018-Feb-18 09:30N 54°01' E 007°47'714.1
2018-Feb-18 09:00N 54°01' E 007°59'713.6
2018-Feb-18 08:30N 54°01' E 008°11'713.2
2018-Feb-18 08:00N 53°60' E 008°22'816.9
2018-Feb-18 07:30N 53°58' E 008°36'816.6
2018-Feb-18 07:00N 53°52' E 008°45'815.8
2018-Feb-18 06:30N 53°51' E 008°58'714.5
2018-Feb-18 06:00N 53°53' E 009°10'612.9
2018-Feb-18 05:30N 53°51' E 009°20'713.3
2018-Feb-18 05:00N 53°45' E 009°25'510.9
2018-Feb-18 04:31N 53°40' E 009°31'1 2.3
2018-Feb-18 04:00N 53°39' E 009°31'0 0.0
2018-Feb-18 03:24N 53°39' E 009°31'0 0.0
2018-Feb-18 03:00N 53°39' E 009°31'0 0.0
2018-Feb-18 02:30N 53°39' E 009°31'0 0.0
2018-Feb-18 02:00N 53°39' E 009°31'0 0.0
2018-Feb-18 01:30N 53°39' E 009°31'0 0.0
2018-Feb-18 01:00N 53°39' E 009°31'0 0.0
2018-Feb-18 00:21N 53°39' E 009°31'0 0.0
2018-Feb-18 00:00N 53°39' E 009°31'0 0.0
2018-Feb-17 23:27N 53°39' E 009°31'0 0.0
2018-Feb-17 22:54N 53°39' E 009°31'0 0.0
2018-Feb-17 22:24N 53°39' E 009°31'0 0.0
2018-Feb-17 21:57N 53°39' E 009°31'0 0.0
2018-Feb-17 21:30N 53°39' E 009°31'0 0.0
2018-Feb-17 21:00N 53°39' E 009°31'0 0.0
2018-Feb-17 20:30N 53°39' E 009°31'0 0.0
2018-Feb-17 20:00N 53°39' E 009°31'0 0.0
2018-Feb-17 19:30N 53°39' E 009°31'0 0.0
2018-Feb-17 19:00N 53°39' E 009°31'0 0.0
2018-Feb-17 18:30N 53°39' E 009°31'0 0.0
2018-Feb-17 18:00N 53°39' E 009°31'0 0.0
2018-Feb-17 17:30N 53°39' E 009°31'0 0.0
2018-Feb-17 17:00N 53°39' E 009°31'0 0.0
2018-Feb-17 16:30N 53°39' E 009°31'0 0.0
2018-Feb-17 15:54N 53°39' E 009°31'0 0.0
2018-Feb-17 15:30N 53°39' E 009°31'0 0.0
2018-Feb-17 15:00N 53°39' E 009°31'0 0.0
2018-Feb-17 14:30N 53°39' E 009°31'0 0.0
2018-Feb-17 14:00N 53°39' E 009°31'0 0.0
2018-Feb-17 13:30N 53°39' E 009°31'0 0.0
2018-Feb-17 13:00N 53°39' E 009°31'0 0.0
2018-Feb-17 12:30N 53°39' E 009°31'0 0.0
2018-Feb-17 11:48N 53°39' E 009°31'0 0.0
2018-Feb-17 11:30N 53°39' E 009°31'0 0.0
2018-Feb-17 10:48N 53°39' E 009°31'0 0.0
2018-Feb-17 10:30N 53°39' E 009°31'0 0.0
2018-Feb-17 10:00N 53°39' E 009°31'0 0.0
2018-Feb-17 09:30N 53°39' E 009°31'0 0.0
2018-Feb-17 09:00N 53°39' E 009°31'0 0.0
2018-Feb-17 08:30N 53°39' E 009°31'0 0.0
2018-Feb-17 08:00N 53°39' E 009°31'0 0.0
2018-Feb-17 07:30N 53°39' E 009°31'0 0.0
2018-Feb-17 06:54N 53°39' E 009°31'0 0.0
2018-Feb-17 06:24N 53°39' E 009°31'0 0.0
2018-Feb-17 06:00N 53°39' E 009°31'0 0.0
2018-Feb-17 05:30N 53°39' E 009°31'0 0.0
2018-Feb-17 05:00N 53°39' E 009°31'0 0.0
2018-Feb-17 04:30N 53°39' E 009°31'1 2.3
2018-Feb-17 04:00N 53°40' E 009°30'611.4
2018-Feb-17 03:30N 53°45' E 009°25'714.0
2018-Feb-17 03:00N 53°51' E 009°19'713.7
2018-Feb-17 02:30N 53°53' E 009°08'611.3
2018-Feb-17 02:00N 53°51' E 008°59'714.0
2018-Feb-17 01:30N 53°50' E 008°47'713.4
2018-Feb-17 01:00N 53°56' E 008°40'813.9
2018-Feb-17 00:28N 53°59' E 008°28'714.4
2018-Feb-17 00:00N 53°60' E 008°17'713.6
2018-Feb-16 23:31N 53°59' E 008°05'13515.1
2018-Feb-16 14:35N 53°12' E 004°33'114.2
2018-Feb-16 14:30N 53°11' E 004°32'714.0
2018-Feb-16 14:00N 53°05' E 004°26'713.8
2018-Feb-16 13:30N 52°59' E 004°21'713.6
2018-Feb-16 13:00N 52°53' E 004°16'2413.5
2018-Feb-16 11:13N 52°35' E 003°50'1013.3
2018-Feb-16 10:28N 52°27' E 003°39'613.1
2018-Feb-16 09:59N 52°22' E 003°32'612.9
2018-Feb-16 09:30N 52°16' E 003°29'3312.9
2018-Feb-16 06:58N 51°45' E 003°16'5 9.6
2018-Feb-16 06:29N 51°40' E 003°19'613.6
2018-Feb-16 06:00N 51°35' E 003°24'713.5
2018-Feb-16 05:30N 51°29' E 003°30'510.3
2018-Feb-16 05:00N 51°26' E 003°37'611.4
2018-Feb-16 04:31N 51°23' E 003°44'2 4.5
2018-Feb-16 04:00N 51°21' E 003°46'0 0.0
2018-Feb-16 03:25N 51°21' E 003°46'0 0.0
2018-Feb-16 02:55N 51°21' E 003°46'0 0.0
2018-Feb-16 02:25N 51°21' E 003°46'0 0.0
2018-Feb-16 01:52N 51°21' E 003°46'0 0.0
2018-Feb-16 01:25N 51°21' E 003°46'0 0.0
2018-Feb-16 00:55N 51°21' E 003°46'0 0.0
2018-Feb-16 00:28N 51°21' E 003°46'0 0.0
2018-Feb-15 23:55N 51°21' E 003°46'0 0.0
2018-Feb-15 23:28N 51°21' E 003°46'0 0.0
2018-Feb-15 22:49N 51°21' E 003°46'0 0.0
2018-Feb-15 22:28N 51°21' E 003°46'0 0.0
2018-Feb-15 21:58N 51°21' E 003°46'0 0.0
2018-Feb-15 21:28N 51°21' E 003°46'0 0.0
2018-Feb-15 20:52N 51°21' E 003°46'0 0.0
2018-Feb-15 20:25N 51°21' E 003°46'0 0.0
2018-Feb-15 19:58N 51°21' E 003°46'0 0.0
2018-Feb-15 19:28N 51°21' E 003°46'0 0.0
2018-Feb-15 18:58N 51°21' E 003°46'0 0.0
2018-Feb-15 18:22N 51°21' E 003°46'0 0.0
2018-Feb-15 17:55N 51°21' E 003°46'0 0.0
2018-Feb-15 17:25N 51°21' E 003°46'0 0.0
2018-Feb-15 16:58N 51°21' E 003°46'0 0.0
2018-Feb-15 16:25N 51°21' E 003°46'0 0.0
2018-Feb-15 15:58N 51°21' E 003°46'0 0.0
2018-Feb-15 15:25N 51°21' E 003°46'0 0.0
2018-Feb-15 14:55N 51°21' E 003°46'0 0.0
2018-Feb-15 14:25N 51°21' E 003°46'0 0.0
2018-Feb-15 13:58N 51°21' E 003°46'0 0.0
2018-Feb-15 13:25N 51°21' E 003°46'0 0.0
2018-Feb-15 12:49N 51°21' E 003°46'0 0.0
2018-Feb-15 12:25N 51°21' E 003°46'0 0.0
2018-Feb-15 11:55N 51°21' E 003°46'0 0.0
2018-Feb-15 11:01N 51°21' E 003°46'0 0.0
2018-Feb-15 10:55N 51°21' E 003°46'0 0.0
2018-Feb-15 10:25N 51°21' E 003°46'0 0.0
2018-Feb-15 09:58N 51°21' E 003°46'0 0.0
2018-Feb-15 09:13N 51°21' E 003°46'0 0.0
2018-Feb-15 08:55N 51°21' E 003°46'0 0.0
2018-Feb-15 08:25N 51°21' E 003°46'0 0.0
2018-Feb-15 07:58N 51°21' E 003°46'0 0.0
2018-Feb-15 07:28N 51°21' E 003°46'0 0.0
2018-Feb-15 06:58N 51°21' E 003°46'0 0.0
2018-Feb-15 06:19N 51°21' E 003°46'0 0.0
2018-Feb-15 06:01N 51°21' E 003°46'0 0.0
2018-Feb-15 05:31N 51°21' E 003°46'0 0.0
2018-Feb-15 04:58N 51°21' E 003°46'0 0.0
2018-Feb-15 04:25N 51°21' E 003°46'0 0.0
2018-Feb-15 03:55N 51°21' E 003°46'0 0.0
2018-Feb-15 03:25N 51°21' E 003°46'0 0.0
2018-Feb-15 02:55N 51°21' E 003°46'0 0.0
2018-Feb-15 02:31N 51°21' E 003°46'0 0.0
2018-Feb-15 02:01N 51°21' E 003°46'0 0.0
2018-Feb-15 01:28N 51°21' E 003°46'0 0.0
2018-Feb-15 00:58N 51°21' E 003°46'0 0.0
2018-Feb-15 00:28N 51°21' E 003°46'0 0.0
2018-Feb-15 00:01N 51°21' E 003°46'0 0.0
2018-Feb-14 23:28N 51°21' E 003°46'0 0.0
2018-Feb-14 22:55N 51°21' E 003°46'0 0.0
2018-Feb-14 22:30N 51°21' E 003°46'0 0.0
2018-Feb-14 22:01N 51°21' E 003°46'0 0.0
2018-Feb-14 21:27N 51°21' E 003°46'0 0.0
2018-Feb-14 20:54N 51°21' E 003°46'0 0.0
2018-Feb-14 20:30N 51°21' E 003°46'0 0.0
2018-Feb-14 19:55N 51°21' E 003°46'0 0.0
2018-Feb-14 19:31N 51°21' E 003°46'0 0.0
2018-Feb-14 18:54N 51°21' E 003°46'0 0.0
2018-Feb-14 18:28N 51°21' E 003°46'0 0.0
2018-Feb-14 17:58N 51°21' E 003°46'0 0.0
2018-Feb-14 17:31N 51°21' E 003°46'0 0.0
2018-Feb-14 16:57N 51°21' E 003°46'0 0.0
2018-Feb-14 16:27N 51°21' E 003°46'0 0.0
2018-Feb-14 16:00N 51°21' E 003°46'3 6.4
2018-Feb-14 15:30N 51°23' E 003°43'510.0
2018-Feb-14 15:00N 51°25' E 003°35'610.6
2018-Feb-14 14:29N 51°25' E 003°27'612.9
2018-Feb-14 14:00N 51°24' E 003°17'713.6
2018-Feb-14 13:30N 51°24' E 003°06'713.6
2018-Feb-14 13:00N 51°22' E 002°55'813.9
2018-Feb-14 12:26N 51°22' E 002°42'4 8.7
2018-Feb-14 12:00N 51°22' E 002°36'1 2.5
2018-Feb-14 11:27N 51°20' E 002°35'0 0.1
2018-Feb-14 11:00N 51°20' E 002°35'0 0.0
2018-Feb-14 10:21N 51°20' E 002°35'0 0.1
2018-Feb-14 10:00N 51°20' E 002°35'0 0.1
2018-Feb-14 09:27N 51°20' E 002°35'0 0.0
2018-Feb-14 09:00N 51°20' E 002°35'0 0.1
2018-Feb-14 08:30N 51°20' E 002°35'0 0.0
2018-Feb-14 08:00N 51°20' E 002°35'0 0.0
2018-Feb-14 07:27N 51°20' E 002°35'0 0.0
2018-Feb-14 06:59N 51°20' E 002°35'1 2.4
2018-Feb-14 06:29N 51°21' E 002°34'510.3
2018-Feb-14 05:59N 51°21' E 002°25'1 1.8
2018-Feb-14 05:30N 51°22' E 002°24'3 5.5
2018-Feb-14 04:59N 51°23' E 002°29'4 7.3
2018-Feb-14 04:27N 51°23' E 002°35'3 7.7
2018-Feb-14 04:01N 51°25' E 002°39'0 0.6
2018-Feb-14 03:28N 51°25' E 002°40'0 0.0
2018-Feb-14 02:58N 51°25' E 002°40'0 0.0
2018-Feb-14 02:28N 51°25' E 002°40'0 0.0
2018-Feb-14 01:58N 51°25' E 002°40'0 0.0
2018-Feb-14 01:28N 51°25' E 002°40'0 0.0
2018-Feb-14 00:58N 51°25' E 002°40'0 0.0
2018-Feb-14 00:28N 51°25' E 002°40'0 0.0
2018-Feb-13 23:58N 51°25' E 002°40'0 0.0
2018-Feb-13 23:28N 51°25' E 002°40'0 0.0
2018-Feb-13 22:55N 51°25' E 002°40'0 0.0
2018-Feb-13 22:28N 51°25' E 002°40'0 0.1
2018-Feb-13 21:58N 51°25' E 002°40'0 0.1
2018-Feb-13 21:28N 51°25' E 002°40'0 0.0
2018-Feb-13 20:58N 51°25' E 002°40'0 0.1
2018-Feb-13 20:28N 51°25' E 002°39'0 0.0
2018-Feb-13 19:58N 51°25' E 002°39'0 0.0
2018-Feb-13 19:28N 51°25' E 002°39'0 0.0
2018-Feb-13 18:58N 51°25' E 002°39'0 0.1
2018-Feb-13 18:28N 51°25' E 002°39'0 0.1
2018-Feb-13 17:58N 51°25' E 002°40'0 0.0
2018-Feb-13 17:25N 51°25' E 002°40'0 0.1
2018-Feb-13 16:58N 51°25' E 002°40'3 6.3
2018-Feb-13 16:28N 51°23' E 002°43'612.6
2018-Feb-13 16:00N 51°22' E 002°52'714.5
2018-Feb-13 15:30N 51°24' E 003°03'815.2
2018-Feb-13 15:00N 51°25' E 003°16'815.6
2018-Feb-13 14:30N 51°25' E 003°28'714.4
2018-Feb-13 14:00N 51°27' E 003°39'2 1.0
2018-Feb-13 11:59N 51°28' E 003°42'0 0.0
2018-Feb-13 11:11N 51°28' E 003°42'0 0.0
2018-Feb-13 10:53N 51°28' E 003°42'0 0.0
2018-Feb-13 10:29N 51°28' E 003°42'0 0.0
2018-Feb-13 09:59N 51°28' E 003°42'0 0.0
2018-Feb-13 09:17N 51°28' E 003°42'0 0.0
2018-Feb-13 08:11N 51°28' E 003°42'0 0.0
2018-Feb-13 07:59N 51°28' E 003°42'0 0.0
2018-Feb-13 07:29N 51°28' E 003°42'0 0.0
2018-Feb-13 06:53N 51°28' E 003°42'0 0.0
2018-Feb-13 06:29N 51°28' E 003°42'0 0.0
2018-Feb-13 05:59N 51°28' E 003°42'0 0.0
2018-Feb-13 05:29N 51°28' E 003°42'0 0.0
2018-Feb-13 04:59N 51°28' E 003°42'0 0.0
2018-Feb-13 04:23N 51°28' E 003°42'0 0.0
2018-Feb-13 03:53N 51°28' E 003°42'0 0.0
2018-Feb-13 03:29N 51°28' E 003°42'0 0.0
2018-Feb-13 02:47N 51°28' E 003°42'0 0.0
2018-Feb-13 02:23N 51°28' E 003°42'0 0.7
2018-Feb-13 02:00N 51°28' E 003°42'2 3.8
2018-Feb-13 01:30N 51°27' E 003°41'612.4
2018-Feb-13 01:00N 51°22' E 003°46'611.6
2018-Feb-13 00:30N 51°22' E 003°56'5 9.8
2018-Feb-13 00:00N 51°26' E 004°01'5 9.2
2018-Feb-12 23:30N 51°22' E 004°05'510.0
2018-Feb-12 23:00N 51°24' E 004°12'4 8.5
2018-Feb-12 22:30N 51°21' E 004°17'0 0.0
2018-Feb-12 22:00N 51°21' E 004°17'0 0.0
2018-Feb-12 21:30N 51°21' E 004°17'0 0.0
2018-Feb-12 21:00N 51°21' E 004°17'1 1.0
2018-Feb-12 20:30N 51°21' E 004°18'3 6.2
2018-Feb-12 20:00N 51°18' E 004°20'2 4.1
2018-Feb-12 19:29N 51°16' E 004°20'0 0.0
2018-Feb-12 18:59N 51°16' E 004°20'0 0.0
2018-Feb-12 18:29N 51°16' E 004°20'0 0.0
2018-Feb-12 17:59N 51°16' E 004°20'0 0.0
2018-Feb-12 17:29N 51°16' E 004°20'0 0.0
2018-Feb-12 16:59N 51°16' E 004°20'0 0.0
2018-Feb-12 16:29N 51°16' E 004°20'0 0.0
2018-Feb-12 15:53N 51°16' E 004°20'0 0.0
2018-Feb-12 15:11N 51°16' E 004°20'0 0.0
2018-Feb-12 14:59N 51°16' E 004°20'0 0.0
2018-Feb-12 14:26N 51°16' E 004°20'0 0.0
2018-Feb-12 13:59N 51°16' E 004°20'0 0.0
2018-Feb-12 13:29N 51°16' E 004°20'0 0.0
2018-Feb-12 12:59N 51°16' E 004°20'0 0.0
2018-Feb-12 12:23N 51°16' E 004°20'0 0.0
2018-Feb-12 11:59N 51°16' E 004°20'0 0.0
2018-Feb-12 11:29N 51°16' E 004°20'0 0.0
2018-Feb-12 10:59N 51°16' E 004°20'0 0.0
2018-Feb-12 10:23N 51°16' E 004°20'0 0.0
2018-Feb-12 09:56N 51°16' E 004°20'0 0.0
2018-Feb-12 09:29N 51°16' E 004°20'0 0.0
2018-Feb-12 08:59N 51°16' E 004°20'0 0.0
2018-Feb-12 08:29N 51°16' E 004°20'0 0.0
2018-Feb-12 07:59N 51°16' E 004°20'0 0.0
2018-Feb-12 07:23N 51°16' E 004°20'0 0.0
2018-Feb-12 06:56N 51°16' E 004°20'0 0.0
2018-Feb-12 06:29N 51°16' E 004°20'0 0.0
2018-Feb-12 05:56N 51°16' E 004°20'0 0.0
2018-Feb-12 05:29N 51°16' E 004°20'0 0.0
2018-Feb-12 04:59N 51°16' E 004°20'0 0.0
2018-Feb-12 04:29N 51°16' E 004°20'0 0.0
2018-Feb-12 03:53N 51°16' E 004°20'0 0.0
2018-Feb-12 03:29N 51°16' E 004°20'0 0.0
2018-Feb-12 02:59N 51°16' E 004°20'0 0.0
2018-Feb-12 02:26N 51°16' E 004°20'0 0.0
2018-Feb-12 01:59N 51°16' E 004°20'0 0.0
2018-Feb-12 01:29N 51°16' E 004°20'0 0.0
2018-Feb-12 00:59N 51°16' E 004°20'0 0.0
2018-Feb-12 00:20N 51°16' E 004°20'0 0.0
2018-Feb-11 23:59N 51°16' E 004°20'0 0.0
2018-Feb-11 23:29N 51°16' E 004°20'0 0.0
2018-Feb-11 22:59N 51°16' E 004°20'0 0.0
2018-Feb-11 22:26N 51°16' E 004°20'0 0.0
2018-Feb-11 21:53N 51°16' E 004°20'0 0.0
2018-Feb-11 21:29N 51°16' E 004°20'0 0.0
2018-Feb-11 20:59N 51°16' E 004°20'0 0.0
2018-Feb-11 20:29N 51°16' E 004°20'0 0.0
2018-Feb-11 19:56N 51°16' E 004°20'0 0.0
2018-Feb-11 19:29N 51°16' E 004°20'0 0.0
2018-Feb-11 18:59N 51°16' E 004°20'0 0.0
2018-Feb-11 18:29N 51°16' E 004°20'0 0.0
2018-Feb-11 17:47N 51°16' E 004°20'0 0.0
2018-Feb-11 17:29N 51°16' E 004°20'0 0.0
2018-Feb-11 16:59N 51°16' E 004°20'0 0.0
2018-Feb-11 16:17N 51°16' E 004°20'0 0.0
2018-Feb-11 15:53N 51°16' E 004°20'0 0.0
2018-Feb-11 15:17N 51°16' E 004°20'0 0.0
2018-Feb-11 14:59N 51°16' E 004°20'0 0.0
2018-Feb-11 14:29N 51°16' E 004°20'0 0.0
2018-Feb-11 13:59N 51°16' E 004°20'0 0.0
2018-Feb-11 13:29N 51°16' E 004°20'0 0.0
2018-Feb-11 12:58N 51°16' E 004°20'0 0.0
2018-Feb-11 12:29N 51°16' E 004°20'0 0.0
2018-Feb-11 12:01N 51°16' E 004°20'0 0.3
2018-Feb-11 11:30N 51°16' E 004°20'  
Track history (hours):
 
Tides and Currents Weather Stations Pressure Air Temp Water Temp Dewpoint Dewpoint Depression Visibility Wind Speed Wind Dir Waves Ship Positions

Happy Pelican

Last reported at 2018-Feb-21 11:30 UTC. Time now 2018-Feb-21 11:44 UTC.
Position N 51°16' E 004°15'.

Length 113 m; draft 6.6 m.

Type: Ship (hazmat cat D). MMSI: 235094449.

Date/timePositionNaut miles runAvg speedWind from/ knotsBaromVisibWave heightAir tempDewpointWater temp
2018-Feb-21 11:30N 51°16' E 004°15'0 0.0
2018-Feb-21 11:00N 51°16' E 004°15'0 0.0
2018-Feb-21 10:30N 51°16' E 004°15'0 0.0
2018-Feb-21 10:00N 51°16' E 004°15'0 0.0
2018-Feb-21 09:27N 51°16' E 004°15'0 0.0
2018-Feb-21 09:00N 51°16' E 004°15'0 0.0
2018-Feb-21 08:27N 51°16' E 004°15'0 0.0
2018-Feb-21 08:00N 51°16' E 004°15'0 0.0
2018-Feb-21 07:30N 51°16' E 004°15'0 0.0
2018-Feb-21 07:00N 51°16' E 004°15'0 0.0
2018-Feb-21 06:30N 51°16' E 004°15'0 0.0
2018-Feb-21 05:54N 51°16' E 004°15'0 0.0
2018-Feb-21 05:30N 51°16' E 004°15'0 0.0
2018-Feb-21 05:00N 51°16' E 004°15'0 0.0
2018-Feb-21 04:27N 51°16' E 004°15'0 0.0
2018-Feb-21 04:00N 51°16' E 004°15'0 0.0
2018-Feb-21 03:30N 51°16' E 004°15'0 0.0
2018-Feb-21 03:00N 51°16' E 004°15'0 0.0
2018-Feb-21 02:30N 51°16' E 004°15'0 0.0
2018-Feb-21 02:00N 51°16' E 004°15'0 0.0
2018-Feb-21 01:30N 51°16' E 004°15'0 0.0
2018-Feb-21 01:00N 51°16' E 004°15'0 0.0
2018-Feb-21 00:30N 51°16' E 004°15'0 0.0
2018-Feb-21 00:00N 51°16' E 004°15'0 0.0
2018-Feb-20 23:30N 51°16' E 004°15'0 0.0
2018-Feb-20 23:00N 51°16' E 004°15'0 0.0
2018-Feb-20 22:30N 51°16' E 004°15'0 0.0
2018-Feb-20 21:57N 51°16' E 004°15'0 0.0
2018-Feb-20 21:30N 51°16' E 004°15'0 0.0
2018-Feb-20 21:00N 51°16' E 004°15'0 0.0
2018-Feb-20 20:24N 51°16' E 004°15'0 0.0
2018-Feb-20 19:57N 51°16' E 004°15'0 0.0
2018-Feb-20 19:30N 51°16' E 004°15'0 0.0
2018-Feb-20 19:00N 51°16' E 004°15'0 0.1
2018-Feb-20 18:30N 51°16' E 004°15'1 2.0
2018-Feb-20 18:00N 51°17' E 004°15'0 0.0
2018-Feb-20 17:30N 51°17' E 004°15'0 0.2
2018-Feb-20 17:00N 51°17' E 004°15'2 3.4
2018-Feb-20 16:30N 51°18' E 004°16'612.7
2018-Feb-20 16:00N 51°24' E 004°12'612.2
2018-Feb-20 15:31N 51°24' E 004°02'4 8.6
2018-Feb-20 15:00N 51°22' E 003°56'713.9
2018-Feb-20 14:30N 51°22' E 003°45'612.0
2018-Feb-20 14:00N 51°26' E 003°37'4 7.7
2018-Feb-20 13:30N 51°27' E 003°31'612.0
2018-Feb-20 13:00N 51°32' E 003°25'611.8
2018-Feb-20 12:31N 51°37' E 003°21'713.7
2018-Feb-20 12:00N 51°43' E 003°15'5 9.6
2018-Feb-20 11:28N 51°48' E 003°16'3 1.3
2018-Feb-20 08:51N 51°50' E 003°21'0 0.0
2018-Feb-20 04:30N 51°50' E 003°21'0 0.0
2018-Feb-20 04:00N 51°50' E 003°21'0 0.0
2018-Feb-20 03:30N 51°50' E 003°21'0 0.0
2018-Feb-20 03:00N 51°50' E 003°21'0 0.2
2018-Feb-20 02:30N 51°50' E 003°21'0 0.1
2018-Feb-20 02:00N 51°50' E 003°21'0 0.0
2018-Feb-20 01:24N 51°50' E 003°21'0 0.0
2018-Feb-20 01:00N 51°50' E 003°21'0 0.0
2018-Feb-19 01:37N 51°50' E 003°21'0 3.0
2018-Feb-19 01:28N 51°50' E 003°20'2613.9
2018-Feb-18 23:36N 52°16' E 003°24'515.9
2018-Feb-18 23:19N 52°20' E 003°25'516.0
2018-Feb-18 22:59N 52°26' E 003°27'916.2
2018-Feb-18 22:27N 52°34' E 003°29'3214.7
2018-Feb-18 20:14N 52°59' E 004°03'1714.1
2018-Feb-18 19:02N 53°11' E 004°24'013.1
2018-Feb-18 19:00N 53°11' E 004°24'1713.0
2018-Feb-18 17:42N 53°26' E 004°36'313.3
2018-Feb-18 17:28N 53°29' E 004°39'714.3
2018-Feb-18 17:00N 53°31' E 004°49'715.3
2018-Feb-18 16:30N 53°34' E 005°01'815.7
2018-Feb-18 16:00N 53°36' E 005°14'815.6
2018-Feb-18 15:30N 53°39' E 005°26'6914.7
2018-Feb-18 10:46N 53°58' E 007°19'413.1
2018-Feb-18 10:29N 53°59' E 007°25'713.1
2018-Feb-18 09:59N 54°01' E 007°36'613.3
2018-Feb-18 09:30N 54°01' E 007°47'714.1
2018-Feb-18 09:00N 54°01' E 007°59'713.6
2018-Feb-18 08:30N 54°01' E 008°11'713.2
2018-Feb-18 08:00N 53°60' E 008°22'816.9
2018-Feb-18 07:30N 53°58' E 008°36'816.6
2018-Feb-18 07:00N 53°52' E 008°45'815.8
2018-Feb-18 06:30N 53°51' E 008°58'714.5
2018-Feb-18 06:00N 53°53' E 009°10'612.9
2018-Feb-18 05:30N 53°51' E 009°20'713.3
2018-Feb-18 05:00N 53°45' E 009°25'510.9
2018-Feb-18 04:31N 53°40' E 009°31'1 2.3
2018-Feb-18 04:00N 53°39' E 009°31'0 0.0
2018-Feb-18 03:24N 53°39' E 009°31'0 0.0
2018-Feb-18 03:00N 53°39' E 009°31'0 0.0
2018-Feb-18 02:30N 53°39' E 009°31'0 0.0
2018-Feb-18 02:00N 53°39' E 009°31'0 0.0
2018-Feb-18 01:30N 53°39' E 009°31'0 0.0
2018-Feb-18 01:00N 53°39' E 009°31'0 0.0
2018-Feb-18 00:21N 53°39' E 009°31'0 0.0
2018-Feb-18 00:00N 53°39' E 009°31'0 0.0
2018-Feb-17 23:27N 53°39' E 009°31'0 0.0
2018-Feb-17 22:54N 53°39' E 009°31'0 0.0
2018-Feb-17 22:24N 53°39' E 009°31'0 0.0
2018-Feb-17 21:57N 53°39' E 009°31'0 0.0
2018-Feb-17 21:30N 53°39' E 009°31'0 0.0
2018-Feb-17 21:00N 53°39' E 009°31'0 0.0
2018-Feb-17 20:30N 53°39' E 009°31'0 0.0
2018-Feb-17 20:00N 53°39' E 009°31'0 0.0
2018-Feb-17 19:30N 53°39' E 009°31'0 0.0
2018-Feb-17 19:00N 53°39' E 009°31'0 0.0
2018-Feb-17 18:30N 53°39' E 009°31'0 0.0
2018-Feb-17 18:00N 53°39' E 009°31'0 0.0
2018-Feb-17 17:30N 53°39' E 009°31'0 0.0
2018-Feb-17 17:00N 53°39' E 009°31'0 0.0
2018-Feb-17 16:30N 53°39' E 009°31'0 0.0
2018-Feb-17 15:54N 53°39' E 009°31'0 0.0
2018-Feb-17 15:30N 53°39' E 009°31'0 0.0
2018-Feb-17 15:00N 53°39' E 009°31'0 0.0
2018-Feb-17 14:30N 53°39' E 009°31'0 0.0
2018-Feb-17 14:00N 53°39' E 009°31'0 0.0
2018-Feb-17 13:30N 53°39' E 009°31'0 0.0
2018-Feb-17 13:00N 53°39' E 009°31'0 0.0
2018-Feb-17 12:30N 53°39' E 009°31'0 0.0
2018-Feb-17 11:48N 53°39' E 009°31'0 0.0
2018-Feb-17 11:30N 53°39' E 009°31'0 0.0
2018-Feb-17 10:48N 53°39' E 009°31'0 0.0
2018-Feb-17 10:30N 53°39' E 009°31'0 0.0
2018-Feb-17 10:00N 53°39' E 009°31'0 0.0
2018-Feb-17 09:30N 53°39' E 009°31'0 0.0
2018-Feb-17 09:00N 53°39' E 009°31'0 0.0
2018-Feb-17 08:30N 53°39' E 009°31'0 0.0
2018-Feb-17 08:00N 53°39' E 009°31'0 0.0
2018-Feb-17 07:30N 53°39' E 009°31'0 0.0
2018-Feb-17 06:54N 53°39' E 009°31'0 0.0
2018-Feb-17 06:24N 53°39' E 009°31'0 0.0
2018-Feb-17 06:00N 53°39' E 009°31'0 0.0
2018-Feb-17 05:30N 53°39' E 009°31'0 0.0
2018-Feb-17 05:00N 53°39' E 009°31'0 0.0
2018-Feb-17 04:30N 53°39' E 009°31'1 2.3
2018-Feb-17 04:00N 53°40' E 009°30'611.4
2018-Feb-17 03:30N 53°45' E 009°25'714.0
2018-Feb-17 03:00N 53°51' E 009°19'713.7
2018-Feb-17 02:30N 53°53' E 009°08'611.3
2018-Feb-17 02:00N 53°51' E 008°59'714.0
2018-Feb-17 01:30N 53°50' E 008°47'713.4
2018-Feb-17 01:00N 53°56' E 008°40'813.9
2018-Feb-17 00:28N 53°59' E 008°28'714.4
2018-Feb-17 00:00N 53°60' E 008°17'713.6
2018-Feb-16 23:31N 53°59' E 008°05'13515.1
2018-Feb-16 14:35N 53°12' E 004°33'114.2
2018-Feb-16 14:30N 53°11' E 004°32'714.0
2018-Feb-16 14:00N 53°05' E 004°26'713.8
2018-Feb-16 13:30N 52°59' E 004°21'713.6
2018-Feb-16 13:00N 52°53' E 004°16'2413.5
2018-Feb-16 11:13N 52°35' E 003°50'1013.3
2018-Feb-16 10:28N 52°27' E 003°39'613.1
2018-Feb-16 09:59N 52°22' E 003°32'612.9
2018-Feb-16 09:30N 52°16' E 003°29'3312.9
2018-Feb-16 06:58N 51°45' E 003°16'5 9.6
2018-Feb-16 06:29N 51°40' E 003°19'613.6
2018-Feb-16 06:00N 51°35' E 003°24'713.5
2018-Feb-16 05:30N 51°29' E 003°30'510.3
2018-Feb-16 05:00N 51°26' E 003°37'611.4
2018-Feb-16 04:31N 51°23' E 003°44'2 4.5
2018-Feb-16 04:00N 51°21' E 003°46'0 0.0
2018-Feb-16 03:25N 51°21' E 003°46'0 0.0
2018-Feb-16 02:55N 51°21' E 003°46'0 0.0
2018-Feb-16 02:25N 51°21' E 003°46'0 0.0
2018-Feb-16 01:52N 51°21' E 003°46'0 0.0
2018-Feb-16 01:25N 51°21' E 003°46'0 0.0
2018-Feb-16 00:55N 51°21' E 003°46'0 0.0
2018-Feb-16 00:28N 51°21' E 003°46'0 0.0
2018-Feb-15 23:55N 51°21' E 003°46'0 0.0
2018-Feb-15 23:28N 51°21' E 003°46'0 0.0
2018-Feb-15 22:49N 51°21' E 003°46'0 0.0
2018-Feb-15 22:28N 51°21' E 003°46'0 0.0
2018-Feb-15 21:58N 51°21' E 003°46'0 0.0
2018-Feb-15 21:28N 51°21' E 003°46'0 0.0
2018-Feb-15 20:52N 51°21' E 003°46'0 0.0
2018-Feb-15 20:25N 51°21' E 003°46'0 0.0
2018-Feb-15 19:58N 51°21' E 003°46'0 0.0
2018-Feb-15 19:28N 51°21' E 003°46'0 0.0
2018-Feb-15 18:58N 51°21' E 003°46'0 0.0
2018-Feb-15 18:22N 51°21' E 003°46'0 0.0
2018-Feb-15 17:55N 51°21' E 003°46'0 0.0
2018-Feb-15 17:25N 51°21' E 003°46'0 0.0
2018-Feb-15 16:58N 51°21' E 003°46'0 0.0
2018-Feb-15 16:25N 51°21' E 003°46'0 0.0
2018-Feb-15 15:58N 51°21' E 003°46'0 0.0
2018-Feb-15 15:25N 51°21' E 003°46'0 0.0
2018-Feb-15 14:55N 51°21' E 003°46'0 0.0
2018-Feb-15 14:25N 51°21' E 003°46'0 0.0
2018-Feb-15 13:58N 51°21' E 003°46'0 0.0
2018-Feb-15 13:25N 51°21' E 003°46'0 0.0
2018-Feb-15 12:49N 51°21' E 003°46'0 0.0
2018-Feb-15 12:25N 51°21' E 003°46'0 0.0
2018-Feb-15 11:55N 51°21' E 003°46'0 0.0
2018-Feb-15 11:01N 51°21' E 003°46'0 0.0
2018-Feb-15 10:55N 51°21' E 003°46'0 0.0
2018-Feb-15 10:25N 51°21' E 003°46'0 0.0
2018-Feb-15 09:58N 51°21' E 003°46'0 0.0
2018-Feb-15 09:13N 51°21' E 003°46'0 0.0
2018-Feb-15 08:55N 51°21' E 003°46'0 0.0
2018-Feb-15 08:25N 51°21' E 003°46'0 0.0
2018-Feb-15 07:58N 51°21' E 003°46'0 0.0
2018-Feb-15 07:28N 51°21' E 003°46'0 0.0
2018-Feb-15 06:58N 51°21' E 003°46'0 0.0
2018-Feb-15 06:19N 51°21' E 003°46'0 0.0
2018-Feb-15 06:01N 51°21' E 003°46'0 0.0
2018-Feb-15 05:31N 51°21' E 003°46'0 0.0
2018-Feb-15 04:58N 51°21' E 003°46'0 0.0
2018-Feb-15 04:25N 51°21' E 003°46'0 0.0
2018-Feb-15 03:55N 51°21' E 003°46'0 0.0
2018-Feb-15 03:25N 51°21' E 003°46'0 0.0
2018-Feb-15 02:55N 51°21' E 003°46'0 0.0
2018-Feb-15 02:31N 51°21' E 003°46'0 0.0
2018-Feb-15 02:01N 51°21' E 003°46'0 0.0
2018-Feb-15 01:28N 51°21' E 003°46'0 0.0
2018-Feb-15 00:58N 51°21' E 003°46'0 0.0
2018-Feb-15 00:28N 51°21' E 003°46'0 0.0
2018-Feb-15 00:01N 51°21' E 003°46'0 0.0
2018-Feb-14 23:28N 51°21' E 003°46'0 0.0
2018-Feb-14 22:55N 51°21' E 003°46'0 0.0
2018-Feb-14 22:30N 51°21' E 003°46'0 0.0
2018-Feb-14 22:01N 51°21' E 003°46'0 0.0
2018-Feb-14 21:27N 51°21' E 003°46'0 0.0
2018-Feb-14 20:54N 51°21' E 003°46'0 0.0
2018-Feb-14 20:30N 51°21' E 003°46'0 0.0
2018-Feb-14 19:55N 51°21' E 003°46'0 0.0
2018-Feb-14 19:31N 51°21' E 003°46'0 0.0
2018-Feb-14 18:54N 51°21' E 003°46'0 0.0
2018-Feb-14 18:28N 51°21' E 003°46'0 0.0
2018-Feb-14 17:58N 51°21' E 003°46'0 0.0
2018-Feb-14 17:31N 51°21' E 003°46'0 0.0
2018-Feb-14 16:57N 51°21' E 003°46'0 0.0
2018-Feb-14 16:27N 51°21' E 003°46'0 0.0
2018-Feb-14 16:00N 51°21' E 003°46'3 6.4
2018-Feb-14 15:30N 51°23' E 003°43'510.0
2018-Feb-14 15:00N 51°25' E 003°35'610.6
2018-Feb-14 14:29N 51°25' E 003°27'612.9
2018-Feb-14 14:00N 51°24' E 003°17'713.6
2018-Feb-14 13:30N 51°24' E 003°06'713.6
2018-Feb-14 13:00N 51°22' E 002°55'813.9
2018-Feb-14 12:26N 51°22' E 002°42'4 8.7
2018-Feb-14 12:00N 51°22' E 002°36'1 2.5
2018-Feb-14 11:27N 51°20' E 002°35'0 0.1
2018-Feb-14 11:00N 51°20' E 002°35'0 0.0
2018-Feb-14 10:21N 51°20' E 002°35'0 0.1
2018-Feb-14 10:00N 51°20' E 002°35'0 0.1
2018-Feb-14 09:27N 51°20' E 002°35'0 0.0
2018-Feb-14 09:00N 51°20' E 002°35'0 0.1
2018-Feb-14 08:30N 51°20' E 002°35'0 0.0
2018-Feb-14 08:00N 51°20' E 002°35'0 0.0
2018-Feb-14 07:27N 51°20' E 002°35'0 0.0
2018-Feb-14 06:59N 51°20' E 002°35'1 2.4
2018-Feb-14 06:29N 51°21' E 002°34'510.3
2018-Feb-14 05:59N 51°21' E 002°25'1 1.8
2018-Feb-14 05:30N 51°22' E 002°24'3 5.5
2018-Feb-14 04:59N 51°23' E 002°29'4 7.3
2018-Feb-14 04:27N 51°23' E 002°35'3 7.7
2018-Feb-14 04:01N 51°25' E 002°39'0 0.6
2018-Feb-14 03:28N 51°25' E 002°40'0 0.0
2018-Feb-14 02:58N 51°25' E 002°40'0 0.0
2018-Feb-14 02:28N 51°25' E 002°40'0 0.0
2018-Feb-14 01:58N 51°25' E 002°40'0 0.0
2018-Feb-14 01:28N 51°25' E 002°40'0 0.0
2018-Feb-14 00:58N 51°25' E 002°40'0 0.0
2018-Feb-14 00:28N 51°25' E 002°40'0 0.0
2018-Feb-13 23:58N 51°25' E 002°40'0 0.0
2018-Feb-13 23:28N 51°25' E 002°40'0 0.0
2018-Feb-13 22:55N 51°25' E 002°40'0 0.0
2018-Feb-13 22:28N 51°25' E 002°40'0 0.1
2018-Feb-13 21:58N 51°25' E 002°40'0 0.1
2018-Feb-13 21:28N 51°25' E 002°40'0 0.0
2018-Feb-13 20:58N 51°25' E 002°40'0 0.1
2018-Feb-13 20:28N 51°25' E 002°39'0 0.0
2018-Feb-13 19:58N 51°25' E 002°39'0 0.0
2018-Feb-13 19:28N 51°25' E 002°39'0 0.0
2018-Feb-13 18:58N 51°25' E 002°39'0 0.1
2018-Feb-13 18:28N 51°25' E 002°39'0 0.1
2018-Feb-13 17:58N 51°25' E 002°40'0 0.0
2018-Feb-13 17:25N 51°25' E 002°40'0 0.1
2018-Feb-13 16:58N 51°25' E 002°40'3 6.3
2018-Feb-13 16:28N 51°23' E 002°43'612.6
2018-Feb-13 16:00N 51°22' E 002°52'714.5
2018-Feb-13 15:30N 51°24' E 003°03'815.2
2018-Feb-13 15:00N 51°25' E 003°16'815.6
2018-Feb-13 14:30N 51°25' E 003°28'714.4
2018-Feb-13 14:00N 51°27' E 003°39'2 1.0
2018-Feb-13 11:59N 51°28' E 003°42'0 0.0
2018-Feb-13 11:11N 51°28' E 003°42'0 0.0
2018-Feb-13 10:53N 51°28' E 003°42'0 0.0
2018-Feb-13 10:29N 51°28' E 003°42'0 0.0
2018-Feb-13 09:59N 51°28' E 003°42'0 0.0
2018-Feb-13 09:17N 51°28' E 003°42'0 0.0
2018-Feb-13 08:11N 51°28' E 003°42'0 0.0
2018-Feb-13 07:59N 51°28' E 003°42'0 0.0
2018-Feb-13 07:29N 51°28' E 003°42'0 0.0
2018-Feb-13 06:53N 51°28' E 003°42'0 0.0
2018-Feb-13 06:29N 51°28' E 003°42'0 0.0
2018-Feb-13 05:59N 51°28' E 003°42'0 0.0
2018-Feb-13 05:29N 51°28' E 003°42'0 0.0
2018-Feb-13 04:59N 51°28' E 003°42'0 0.0
2018-Feb-13 04:23N 51°28' E 003°42'0 0.0
2018-Feb-13 03:53N 51°28' E 003°42'0 0.0
2018-Feb-13 03:29N 51°28' E 003°42'0 0.0
2018-Feb-13 02:47N 51°28' E 003°42'0 0.0
2018-Feb-13 02:23N 51°28' E 003°42'0 0.7
2018-Feb-13 02:00N 51°28' E 003°42'2 3.8
2018-Feb-13 01:30N 51°27' E 003°41'612.4
2018-Feb-13 01:00N 51°22' E 003°46'611.6
2018-Feb-13 00:30N 51°22' E 003°56'5 9.8
2018-Feb-13 00:00N 51°26' E 004°01'5 9.2
2018-Feb-12 23:30N 51°22' E 004°05'510.0
2018-Feb-12 23:00N 51°24' E 004°12'4 8.5
2018-Feb-12 22:30N 51°21' E 004°17'0 0.0
2018-Feb-12 22:00N 51°21' E 004°17'0 0.0
2018-Feb-12 21:30N 51°21' E 004°17'0 0.0
2018-Feb-12 21:00N 51°21' E 004°17'1 1.0
2018-Feb-12 20:30N 51°21' E 004°18'3 6.2
2018-Feb-12 20:00N 51°18' E 004°20'2 4.1
2018-Feb-12 19:29N 51°16' E 004°20'0 0.0
2018-Feb-12 18:59N 51°16' E 004°20'0 0.0
2018-Feb-12 18:29N 51°16' E 004°20'0 0.0
2018-Feb-12 17:59N 51°16' E 004°20'0 0.0
2018-Feb-12 17:29N 51°16' E 004°20'0 0.0
2018-Feb-12 16:59N 51°16' E 004°20'0 0.0
2018-Feb-12 16:29N 51°16' E 004°20'0 0.0
2018-Feb-12 15:53N 51°16' E 004°20'0 0.0
2018-Feb-12 15:11N 51°16' E 004°20'0 0.0
2018-Feb-12 14:59N 51°16' E 004°20'0 0.0
2018-Feb-12 14:26N 51°16' E 004°20'0 0.0
2018-Feb-12 13:59N 51°16' E 004°20'0 0.0
2018-Feb-12 13:29N 51°16' E 004°20'0 0.0
2018-Feb-12 12:59N 51°16' E 004°20'0 0.0
2018-Feb-12 12:23N 51°16' E 004°20'0 0.0
2018-Feb-12 11:59N 51°16' E 004°20'0 0.0
2018-Feb-12 11:29N 51°16' E 004°20'0 0.0
2018-Feb-12 10:59N 51°16' E 004°20'0 0.0
2018-Feb-12 10:23N 51°16' E 004°20'0 0.0
2018-Feb-12 09:56N 51°16' E 004°20'0 0.0
2018-Feb-12 09:29N 51°16' E 004°20'0 0.0
2018-Feb-12 08:59N 51°16' E 004°20'0 0.0
2018-Feb-12 08:29N 51°16' E 004°20'0 0.0
2018-Feb-12 07:59N 51°16' E 004°20'0 0.0
2018-Feb-12 07:23N 51°16' E 004°20'0 0.0
2018-Feb-12 06:56N 51°16' E 004°20'0 0.0
2018-Feb-12 06:29N 51°16' E 004°20'0 0.0
2018-Feb-12 05:56N 51°16' E 004°20'0 0.0
2018-Feb-12 05:29N 51°16' E 004°20'0 0.0
2018-Feb-12 04:59N 51°16' E 004°20'0 0.0
2018-Feb-12 04:29N 51°16' E 004°20'0 0.0
2018-Feb-12 03:53N 51°16' E 004°20'0 0.0
2018-Feb-12 03:29N 51°16' E 004°20'0 0.0
2018-Feb-12 02:59N 51°16' E 004°20'0 0.0
2018-Feb-12 02:26N 51°16' E 004°20'0 0.0
2018-Feb-12 01:59N 51°16' E 004°20'0 0.0
2018-Feb-12 01:29N 51°16' E 004°20'0 0.0
2018-Feb-12 00:59N 51°16' E 004°20'0 0.0
2018-Feb-12 00:20N 51°16' E 004°20'0 0.0
2018-Feb-11 23:59N 51°16' E 004°20'0 0.0
2018-Feb-11 23:29N 51°16' E 004°20'0 0.0
2018-Feb-11 22:59N 51°16' E 004°20'0 0.0
2018-Feb-11 22:26N 51°16' E 004°20'0 0.0
2018-Feb-11 21:53N 51°16' E 004°20'0 0.0
2018-Feb-11 21:29N 51°16' E 004°20'0 0.0
2018-Feb-11 20:59N 51°16' E 004°20'0 0.0
2018-Feb-11 20:29N 51°16' E 004°20'0 0.0
2018-Feb-11 19:56N 51°16' E 004°20'0 0.0
2018-Feb-11 19:29N 51°16' E 004°20'0 0.0
2018-Feb-11 18:59N 51°16' E 004°20'0 0.0
2018-Feb-11 18:29N 51°16' E 004°20'0 0.0
2018-Feb-11 17:47N 51°16' E 004°20'0 0.0
2018-Feb-11 17:29N 51°16' E 004°20'0 0.0
2018-Feb-11 16:59N 51°16' E 004°20'0 0.0
2018-Feb-11 16:17N 51°16' E 004°20'0 0.0
2018-Feb-11 15:53N 51°16' E 004°20'0 0.0
2018-Feb-11 15:17N 51°16' E 004°20'0 0.0
2018-Feb-11 14:59N 51°16' E 004°20'0 0.0
2018-Feb-11 14:29N 51°16' E 004°20'0 0.0
2018-Feb-11 13:59N 51°16' E 004°20'0 0.0
2018-Feb-11 13:29N 51°16' E 004°20'0 0.0
2018-Feb-11 12:58N 51°16' E 004°20'0 0.0
2018-Feb-11 12:29N 51°16' E 004°20'0 0.0
2018-Feb-11 12:01N 51°16' E 004°20'0 0.3
2018-Feb-11 11:30N 51°16' E 004°20'  

Dump ship's entire track history